sensor_id;sensor_type;location;lat;lon;timestamp;temperature;humidity
12632;DHT22;6381;45.748;12.106;2023-04-12T00:00:08;11.40;74.50
12632;DHT22;6381;45.748;12.106;2023-04-12T00:02:39;11.30;74.10
12632;DHT22;6381;45.748;12.106;2023-04-12T00:05:09;11.40;74.40
12632;DHT22;6381;45.748;12.106;2023-04-12T00:07:41;11.40;74.70
12632;DHT22;6381;45.748;12.106;2023-04-12T00:10:15;11.40;75.10
12632;DHT22;6381;45.748;12.106;2023-04-12T00:12:43;11.40;74.50
12632;DHT22;6381;45.748;12.106;2023-04-12T00:15:13;11.40;75.10
12632;DHT22;6381;45.748;12.106;2023-04-12T00:17:42;11.50;74.80
12632;DHT22;6381;45.748;12.106;2023-04-12T00:20:13;11.30;75.10
12632;DHT22;6381;45.748;12.106;2023-04-12T00:22:44;11.10;75.50
12632;DHT22;6381;45.748;12.106;2023-04-12T00:25:12;11.10;76.70
12632;DHT22;6381;45.748;12.106;2023-04-12T00:27:41;10.90;76.40
12632;DHT22;6381;45.748;12.106;2023-04-12T00:30:11;10.90;77.70
12632;DHT22;6381;45.748;12.106;2023-04-12T00:32:41;10.90;78.10
12632;DHT22;6381;45.748;12.106;2023-04-12T00:35:11;11.00;78.00
12632;DHT22;6381;45.748;12.106;2023-04-12T00:37:39;11.10;77.60
12632;DHT22;6381;45.748;12.106;2023-04-12T00:40:11;10.90;77.70
12632;DHT22;6381;45.748;12.106;2023-04-12T00:42:40;11.10;76.80
12632;DHT22;6381;45.748;12.106;2023-04-12T00:45:09;11.10;76.60
12632;DHT22;6381;45.748;12.106;2023-04-12T00:47:40;11.10;76.40
12632;DHT22;6381;45.748;12.106;2023-04-12T00:50:10;10.90;75.90
12632;DHT22;6381;45.748;12.106;2023-04-12T00:52:39;10.80;76.70
12632;DHT22;6381;45.748;12.106;2023-04-12T00:55:09;10.70;76.20
12632;DHT22;6381;45.748;12.106;2023-04-12T00:57:39;10.50;76.30
12632;DHT22;6381;45.748;12.106;2023-04-12T01:00:09;10.80;76.60
12632;DHT22;6381;45.748;12.106;2023-04-12T01:02:41;10.80;76.10
12632;DHT22;6381;45.748;12.106;2023-04-12T01:05:15;10.80;75.90
12632;DHT22;6381;45.748;12.106;2023-04-12T01:08:01;11.00;74.80
12632;DHT22;6381;45.748;12.106;2023-04-12T01:10:40;10.80;73.40
12632;DHT22;6381;45.748;12.106;2023-04-12T01:13:19;10.80;74.10
12632;DHT22;6381;45.748;12.106;2023-04-12T01:15:53;10.90;73.90
12632;DHT22;6381;45.748;12.106;2023-04-12T01:18:27;11.00;73.30
12632;DHT22;6381;45.748;12.106;2023-04-12T01:21:02;10.80;72.40
12632;DHT22;6381;45.748;12.106;2023-04-12T01:23:46;11.00;72.60
12632;DHT22;6381;45.748;12.106;2023-04-12T01:26:30;11.10;73.00
12632;DHT22;6381;45.748;12.106;2023-04-12T01:29:08;11.10;72.80
12632;DHT22;6381;45.748;12.106;2023-04-12T01:31:40;11.00;73.90
12632;DHT22;6381;45.748;12.106;2023-04-12T01:34:10;11.00;73.80
12632;DHT22;6381;45.748;12.106;2023-04-12T01:36:40;11.10;73.90
12632;DHT22;6381;45.748;12.106;2023-04-12T01:39:12;11.00;72.70
12632;DHT22;6381;45.748;12.106;2023-04-12T01:41:41;11.40;71.60
12632;DHT22;6381;45.748;12.106;2023-04-12T01:44:14;11.10;72.20
12632;DHT22;6381;45.748;12.106;2023-04-12T01:46:43;11.20;73.70
12632;DHT22;6381;45.748;12.106;2023-04-12T01:49:14;11.30;73.50
12632;DHT22;6381;45.748;12.106;2023-04-12T01:51:49;11.30;73.30
12632;DHT22;6381;45.748;12.106;2023-04-12T01:54:25;11.30;73.00
12632;DHT22;6381;45.748;12.106;2023-04-12T01:56:58;11.30;72.30
12632;DHT22;6381;45.748;12.106;2023-04-12T01:59:35;11.30;71.70
12632;DHT22;6381;45.748;12.106;2023-04-12T02:02:05;11.20;72.00
12632;DHT22;6381;45.748;12.106;2023-04-12T02:04:35;11.40;71.70
12632;DHT22;6381;45.748;12.106;2023-04-12T02:07:04;11.40;71.40
12632;DHT22;6381;45.748;12.106;2023-04-12T02:09:35;11.40;71.20
12632;DHT22;6381;45.748;12.106;2023-04-12T02:12:06;11.40;70.80
12632;DHT22;6381;45.748;12.106;2023-04-12T02:14:37;11.20;69.90
12632;DHT22;6381;45.748;12.106;2023-04-12T02:17:05;11.40;70.10
12632;DHT22;6381;45.748;12.106;2023-04-12T02:19:36;11.40;71.10
12632;DHT22;6381;45.748;12.106;2023-04-12T02:22:05;11.40;71.40
12632;DHT22;6381;45.748;12.106;2023-04-12T02:24:34;11.10;73.00
12632;DHT22;6381;45.748;12.106;2023-04-12T02:27:03;11.10;73.50
12632;DHT22;6381;45.748;12.106;2023-04-12T02:29:33;11.10;74.10
12632;DHT22;6381;45.748;12.106;2023-04-12T02:32:03;11.10;74.60
12632;DHT22;6381;45.748;12.106;2023-04-12T02:34:33;11.20;74.10
12632;DHT22;6381;45.748;12.106;2023-04-12T02:37:21;11.20;73.40
12632;DHT22;6381;45.748;12.106;2023-04-12T02:39:49;11.10;73.30
12632;DHT22;6381;45.748;12.106;2023-04-12T02:42:20;11.20;73.20
12632;DHT22;6381;45.748;12.106;2023-04-12T02:44:48;11.10;73.50
12632;DHT22;6381;45.748;12.106;2023-04-12T02:47:20;10.90;73.90
12632;DHT22;6381;45.748;12.106;2023-04-12T02:49:49;11.00;74.40
12632;DHT22;6381;45.748;12.106;2023-04-12T02:52:21;11.10;74.30
12632;DHT22;6381;45.748;12.106;2023-04-12T02:55:06;11.10;74.00
12632;DHT22;6381;45.748;12.106;2023-04-12T02:57:35;11.10;74.10
12632;DHT22;6381;45.748;12.106;2023-04-12T03:00:07;11.00;74.80
12632;DHT22;6381;45.748;12.106;2023-04-12T03:02:47;11.00;75.20
12632;DHT22;6381;45.748;12.106;2023-04-12T03:05:25;11.00;75.00
12632;DHT22;6381;45.748;12.106;2023-04-12T03:07:54;11.10;75.00
12632;DHT22;6381;45.748;12.106;2023-04-12T03:10:31;10.80;75.10
12632;DHT22;6381;45.748;12.106;2023-04-12T03:13:01;10.90;75.40
12632;DHT22;6381;45.748;12.106;2023-04-12T03:15:46;10.60;77.30
12632;DHT22;6381;45.748;12.106;2023-04-12T03:18:18;10.40;78.80
12632;DHT22;6381;45.748;12.106;2023-04-12T03:20:52;10.30;80.10
12632;DHT22;6381;45.748;12.106;2023-04-12T03:23:21;10.50;81.70
12632;DHT22;6381;45.748;12.106;2023-04-12T03:26:00;10.80;79.80
12632;DHT22;6381;45.748;12.106;2023-04-12T03:28:33;10.50;79.70
12632;DHT22;6381;45.748;12.106;2023-04-12T03:31:04;10.70;79.40
12632;DHT22;6381;45.748;12.106;2023-04-12T03:33:54;10.80;79.10
12632;DHT22;6381;45.748;12.106;2023-04-12T03:36:24;10.70;80.00
12632;DHT22;6381;45.748;12.106;2023-04-12T03:39:04;10.70;79.70
12632;DHT22;6381;45.748;12.106;2023-04-12T03:41:35;10.80;79.00
12632;DHT22;6381;45.748;12.106;2023-04-12T03:44:04;10.90;78.50
12632;DHT22;6381;45.748;12.106;2023-04-12T03:46:35;10.90;77.90
12632;DHT22;6381;45.748;12.106;2023-04-12T03:49:10;10.50;79.30
12632;DHT22;6381;45.748;12.106;2023-04-12T03:51:40;10.60;79.80
12632;DHT22;6381;45.748;12.106;2023-04-12T03:54:10;10.30;80.80
12632;DHT22;6381;45.748;12.106;2023-04-12T03:56:54;10.30;82.00
12632;DHT22;6381;45.748;12.106;2023-04-12T03:59:38;10.10;83.90
12632;DHT22;6381;45.748;12.106;2023-04-12T04:02:08;9.90;85.30
12632;DHT22;6381;45.748;12.106;2023-04-12T04:04:45;10.20;84.80
12632;DHT22;6381;45.748;12.106;2023-04-12T04:07:23;10.10;84.40
12632;DHT22;6381;45.748;12.106;2023-04-12T04:09:54;10.00;84.90
12632;DHT22;6381;45.748;12.106;2023-04-12T04:12:27;10.00;84.80
12632;DHT22;6381;45.748;12.106;2023-04-12T04:14:56;10.20;85.40
12632;DHT22;6381;45.748;12.106;2023-04-12T04:17:29;10.00;86.70
12632;DHT22;6381;45.748;12.106;2023-04-12T04:20:00;10.10;88.30
12632;DHT22;6381;45.748;12.106;2023-04-12T04:22:34;10.20;88.00
12632;DHT22;6381;45.748;12.106;2023-04-12T04:25:04;10.50;87.10
12632;DHT22;6381;45.748;12.106;2023-04-12T04:27:37;10.40;87.70
12632;DHT22;6381;45.748;12.106;2023-04-12T04:30:08;10.40;87.30
12632;DHT22;6381;45.748;12.106;2023-04-12T04:32:42;10.20;87.50
12632;DHT22;6381;45.748;12.106;2023-04-12T04:35:15;10.10;88.90
12632;DHT22;6381;45.748;12.106;2023-04-12T04:37:59;9.90;90.00
12632;DHT22;6381;45.748;12.106;2023-04-12T04:40:28;10.10;90.50
12632;DHT22;6381;45.748;12.106;2023-04-12T04:42:57;10.20;91.00
12632;DHT22;6381;45.748;12.106;2023-04-12T04:45:31;10.00;90.70
12632;DHT22;6381;45.748;12.106;2023-04-12T04:47:59;10.20;91.00
12632;DHT22;6381;45.748;12.106;2023-04-12T04:50:31;10.00;90.60
12632;DHT22;6381;45.748;12.106;2023-04-12T04:53:01;10.30;90.30
12632;DHT22;6381;45.748;12.106;2023-04-12T04:55:32;10.50;89.90
12632;DHT22;6381;45.748;12.106;2023-04-12T04:58:01;10.30;88.00
12632;DHT22;6381;45.748;12.106;2023-04-12T05:00:30;10.30;86.60
12632;DHT22;6381;45.748;12.106;2023-04-12T05:02:59;10.30;85.90
12632;DHT22;6381;45.748;12.106;2023-04-12T05:05:31;10.10;86.40
12632;DHT22;6381;45.748;12.106;2023-04-12T05:08:07;10.30;86.70
12632;DHT22;6381;45.748;12.106;2023-04-12T05:10:36;10.40;86.30
12632;DHT22;6381;45.748;12.106;2023-04-12T05:13:06;10.50;85.00
12632;DHT22;6381;45.748;12.106;2023-04-12T05:15:39;10.60;83.50
12632;DHT22;6381;45.748;12.106;2023-04-12T05:18:08;10.60;83.40
12632;DHT22;6381;45.748;12.106;2023-04-12T05:20:39;10.80;82.60
12632;DHT22;6381;45.748;12.106;2023-04-12T05:23:08;10.80;82.60
12632;DHT22;6381;45.748;12.106;2023-04-12T05:25:42;10.90;83.30
12632;DHT22;6381;45.748;12.106;2023-04-12T05:28:14;10.90;83.70
12632;DHT22;6381;45.748;12.106;2023-04-12T05:30:44;10.90;84.50
12632;DHT22;6381;45.748;12.106;2023-04-12T05:33:18;10.90;85.80
12632;DHT22;6381;45.748;12.106;2023-04-12T05:35:49;11.00;85.90
12632;DHT22;6381;45.748;12.106;2023-04-12T05:38:19;11.00;86.10
12632;DHT22;6381;45.748;12.106;2023-04-12T05:40:55;11.20;84.70
12632;DHT22;6381;45.748;12.106;2023-04-12T05:43:24;11.40;84.60
12632;DHT22;6381;45.748;12.106;2023-04-12T05:45:53;11.50;83.90
12632;DHT22;6381;45.748;12.106;2023-04-12T05:48:23;11.60;83.20
12632;DHT22;6381;45.748;12.106;2023-04-12T05:50:55;11.80;82.20
12632;DHT22;6381;45.748;12.106;2023-04-12T05:53:24;11.80;82.90
12632;DHT22;6381;45.748;12.106;2023-04-12T05:55:59;11.90;81.00
12632;DHT22;6381;45.748;12.106;2023-04-12T05:58:28;12.00;79.60
12632;DHT22;6381;45.748;12.106;2023-04-12T06:00:58;12.20;78.90
12632;DHT22;6381;45.748;12.106;2023-04-12T06:03:27;12.30;79.60
12632;DHT22;6381;45.748;12.106;2023-04-12T06:06:09;12.40;79.40
12632;DHT22;6381;45.748;12.106;2023-04-12T06:08:39;12.40;77.90
12632;DHT22;6381;45.748;12.106;2023-04-12T06:11:08;12.30;77.50
12632;DHT22;6381;45.748;12.106;2023-04-12T06:13:40;12.50;78.30
12632;DHT22;6381;45.748;12.106;2023-04-12T06:16:09;12.20;79.00
12632;DHT22;6381;45.748;12.106;2023-04-12T06:18:38;12.60;80.00
12632;DHT22;6381;45.748;12.106;2023-04-12T06:21:08;12.80;81.30
12632;DHT22;6381;45.748;12.106;2023-04-12T06:23:39;12.70;82.20
12632;DHT22;6381;45.748;12.106;2023-04-12T06:26:08;12.80;81.60
12632;DHT22;6381;45.748;12.106;2023-04-12T06:28:38;13.00;81.60
12632;DHT22;6381;45.748;12.106;2023-04-12T06:31:07;12.90;83.10
12632;DHT22;6381;45.748;12.106;2023-04-12T06:33:38;13.20;82.90
12632;DHT22;6381;45.748;12.106;2023-04-12T06:36:10;13.10;81.30
12632;DHT22;6381;45.748;12.106;2023-04-12T06:38:41;13.10;80.20
12632;DHT22;6381;45.748;12.106;2023-04-12T06:41:10;13.00;78.20
12632;DHT22;6381;45.748;12.106;2023-04-12T06:43:39;13.10;75.80
12632;DHT22;6381;45.748;12.106;2023-04-12T06:46:08;13.20;75.80
12632;DHT22;6381;45.748;12.106;2023-04-12T06:48:36;13.20;74.20
12632;DHT22;6381;45.748;12.106;2023-04-12T06:51:07;13.20;74.60
12632;DHT22;6381;45.748;12.106;2023-04-12T06:53:37;13.30;74.50
12632;DHT22;6381;45.748;12.106;2023-04-12T06:56:07;13.40;71.70
12632;DHT22;6381;45.748;12.106;2023-04-12T06:58:36;13.40;71.40
12632;DHT22;6381;45.748;12.106;2023-04-12T07:01:05;13.40;72.20
12632;DHT22;6381;45.748;12.106;2023-04-12T07:03:34;13.40;71.50
12632;DHT22;6381;45.748;12.106;2023-04-12T07:06:03;13.40;70.80
12632;DHT22;6381;45.748;12.106;2023-04-12T07:08:51;13.50;70.00
12632;DHT22;6381;45.748;12.106;2023-04-12T07:11:20;13.70;70.10
12632;DHT22;6381;45.748;12.106;2023-04-12T07:13:50;13.80;70.80
12632;DHT22;6381;45.748;12.106;2023-04-12T07:16:18;14.00;70.00
12632;DHT22;6381;45.748;12.106;2023-04-12T07:18:47;14.00;69.60
12632;DHT22;6381;45.748;12.106;2023-04-12T07:21:16;14.00;69.70
12632;DHT22;6381;45.748;12.106;2023-04-12T07:23:45;14.20;69.10
12632;DHT22;6381;45.748;12.106;2023-04-12T07:26:19;14.10;68.40
12632;DHT22;6381;45.748;12.106;2023-04-12T07:28:48;13.90;68.80
12632;DHT22;6381;45.748;12.106;2023-04-12T07:31:17;14.00;68.20
12632;DHT22;6381;45.748;12.106;2023-04-12T07:33:46;13.80;67.30
12632;DHT22;6381;45.748;12.106;2023-04-12T07:36:15;13.90;67.60
12632;DHT22;6381;45.748;12.106;2023-04-12T07:38:48;14.00;67.90
12632;DHT22;6381;45.748;12.106;2023-04-12T07:41:23;14.30;67.00
12632;DHT22;6381;45.748;12.106;2023-04-12T07:43:52;14.40;68.20
12632;DHT22;6381;45.748;12.106;2023-04-12T07:46:21;14.40;67.70
12632;DHT22;6381;45.748;12.106;2023-04-12T07:48:50;14.50;66.90
12632;DHT22;6381;45.748;12.106;2023-04-12T07:51:19;14.50;67.10
12632;DHT22;6381;45.748;12.106;2023-04-12T07:53:48;14.50;66.40
12632;DHT22;6381;45.748;12.106;2023-04-12T07:56:17;14.70;67.00
12632;DHT22;6381;45.748;12.106;2023-04-12T07:58:48;14.70;66.20
12632;DHT22;6381;45.748;12.106;2023-04-12T08:01:16;14.70;65.70
12632;DHT22;6381;45.748;12.106;2023-04-12T08:03:46;14.90;66.10
12632;DHT22;6381;45.748;12.106;2023-04-12T08:06:15;14.80;66.60
12632;DHT22;6381;45.748;12.106;2023-04-12T08:08:44;14.80;65.90
12632;DHT22;6381;45.748;12.106;2023-04-12T08:11:13;14.90;65.90
12632;DHT22;6381;45.748;12.106;2023-04-12T08:13:42;15.00;64.80
12632;DHT22;6381;45.748;12.106;2023-04-12T08:16:12;15.20;63.60
12632;DHT22;6381;45.748;12.106;2023-04-12T08:18:41;15.30;64.40
12632;DHT22;6381;45.748;12.106;2023-04-12T08:21:10;15.00;62.50
12632;DHT22;6381;45.748;12.106;2023-04-12T08:23:38;14.90;63.10
12632;DHT22;6381;45.748;12.106;2023-04-12T08:26:07;15.00;63.20
12632;DHT22;6381;45.748;12.106;2023-04-12T08:28:36;15.00;63.30
12632;DHT22;6381;45.748;12.106;2023-04-12T08:31:06;15.20;62.40
12632;DHT22;6381;45.748;12.106;2023-04-12T08:33:38;15.20;62.40
12632;DHT22;6381;45.748;12.106;2023-04-12T08:36:07;15.20;61.90
12632;DHT22;6381;45.748;12.106;2023-04-12T08:38:37;15.10;62.50
12632;DHT22;6381;45.748;12.106;2023-04-12T08:41:12;15.30;63.90
12632;DHT22;6381;45.748;12.106;2023-04-12T08:43:43;15.40;63.50
12632;DHT22;6381;45.748;12.106;2023-04-12T08:46:14;15.50;62.60
12632;DHT22;6381;45.748;12.106;2023-04-12T08:48:46;15.80;63.20
12632;DHT22;6381;45.748;12.106;2023-04-12T08:51:16;15.70;61.70
12632;DHT22;6381;45.748;12.106;2023-04-12T08:53:45;15.60;60.90
12632;DHT22;6381;45.748;12.106;2023-04-12T08:56:15;15.80;61.00
12632;DHT22;6381;45.748;12.106;2023-04-12T08:58:45;15.60;59.50
12632;DHT22;6381;45.748;12.106;2023-04-12T09:01:16;15.90;60.40
12632;DHT22;6381;45.748;12.106;2023-04-12T09:03:46;15.90;59.80
12632;DHT22;6381;45.748;12.106;2023-04-12T09:06:16;15.80;59.10
12632;DHT22;6381;45.748;12.106;2023-04-12T09:08:52;15.80;58.30
12632;DHT22;6381;45.748;12.106;2023-04-12T09:11:22;16.10;58.90
12632;DHT22;6381;45.748;12.106;2023-04-12T09:13:53;16.10;58.10
12632;DHT22;6381;45.748;12.106;2023-04-12T09:16:35;16.20;56.30
12632;DHT22;6381;45.748;12.106;2023-04-12T09:19:06;15.90;56.00
12632;DHT22;6381;45.748;12.106;2023-04-12T09:21:36;15.80;55.60
12632;DHT22;6381;45.748;12.106;2023-04-12T09:24:06;16.00;56.60
12632;DHT22;6381;45.748;12.106;2023-04-12T09:26:41;16.10;55.20
12632;DHT22;6381;45.748;12.106;2023-04-12T09:29:21;16.00;55.30
12632;DHT22;6381;45.748;12.106;2023-04-12T09:31:58;15.90;54.40
12632;DHT22;6381;45.748;12.106;2023-04-12T09:34:29;16.30;55.40
12632;DHT22;6381;45.748;12.106;2023-04-12T09:36:58;15.90;54.10
12632;DHT22;6381;45.748;12.106;2023-04-12T09:39:30;15.80;53.90
12632;DHT22;6381;45.748;12.106;2023-04-12T09:42:04;15.60;53.40
12632;DHT22;6381;45.748;12.106;2023-04-12T09:44:52;15.60;53.70
12632;DHT22;6381;45.748;12.106;2023-04-12T09:47:21;16.00;53.60
12632;DHT22;6381;45.748;12.106;2023-04-12T09:49:53;16.20;53.10
12632;DHT22;6381;45.748;12.106;2023-04-12T09:52:22;16.20;53.00
12632;DHT22;6381;45.748;12.106;2023-04-12T09:54:51;16.10;52.80
12632;DHT22;6381;45.748;12.106;2023-04-12T09:57:22;16.20;52.20
12632;DHT22;6381;45.748;12.106;2023-04-12T09:59:53;16.30;53.20
12632;DHT22;6381;45.748;12.106;2023-04-12T10:02:27;16.40;52.30
12632;DHT22;6381;45.748;12.106;2023-04-12T10:04:58;16.40;53.50
12632;DHT22;6381;45.748;12.106;2023-04-12T10:07:27;16.70;53.30
12632;DHT22;6381;45.748;12.106;2023-04-12T10:09:58;16.60;52.10
12632;DHT22;6381;45.748;12.106;2023-04-12T10:12:27;16.50;50.60
12632;DHT22;6381;45.748;12.106;2023-04-12T10:14:56;16.40;50.00
12632;DHT22;6381;45.748;12.106;2023-04-12T10:17:26;16.40;50.70
12632;DHT22;6381;45.748;12.106;2023-04-12T10:19:56;16.60;49.60
12632;DHT22;6381;45.748;12.106;2023-04-12T10:22:26;16.50;50.60
12632;DHT22;6381;45.748;12.106;2023-04-12T10:24:54;16.30;49.50
12632;DHT22;6381;45.748;12.106;2023-04-12T10:27:26;16.30;50.20
12632;DHT22;6381;45.748;12.106;2023-04-12T10:30:18;16.40;47.80
12632;DHT22;6381;45.748;12.106;2023-04-12T10:32:48;16.30;47.30
12632;DHT22;6381;45.748;12.106;2023-04-12T10:35:18;16.10;45.00
12632;DHT22;6381;45.748;12.106;2023-04-12T10:37:58;16.20;45.70
12632;DHT22;6381;45.748;12.106;2023-04-12T10:40:28;16.00;45.20
12632;DHT22;6381;45.748;12.106;2023-04-12T10:43:25;16.10;46.40
12632;DHT22;6381;45.748;12.106;2023-04-12T10:45:55;16.20;49.10
12632;DHT22;6381;45.748;12.106;2023-04-12T10:48:29;16.10;49.20
12632;DHT22;6381;45.748;12.106;2023-04-12T10:51:16;16.20;48.60
12632;DHT22;6381;45.748;12.106;2023-04-12T10:53:49;16.00;48.80
12632;DHT22;6381;45.748;12.106;2023-04-12T10:56:40;16.10;48.20
12632;DHT22;6381;45.748;12.106;2023-04-12T10:59:15;15.90;47.60
12632;DHT22;6381;45.748;12.106;2023-04-12T11:02:09;16.00;47.40
12632;DHT22;6381;45.748;12.106;2023-04-12T11:05:02;15.90;49.50
12632;DHT22;6381;45.748;12.106;2023-04-12T11:07:52;15.90;48.80
12632;DHT22;6381;45.748;12.106;2023-04-12T11:10:40;15.90;47.90
12632;DHT22;6381;45.748;12.106;2023-04-12T11:13:15;15.80;49.10
12632;DHT22;6381;45.748;12.106;2023-04-12T11:15:44;16.10;47.30
12632;DHT22;6381;45.748;12.106;2023-04-12T11:18:13;16.10;50.80
12632;DHT22;6381;45.748;12.106;2023-04-12T11:20:43;16.10;49.10
12632;DHT22;6381;45.748;12.106;2023-04-12T11:23:14;16.10;47.10
12632;DHT22;6381;45.748;12.106;2023-04-12T11:25:43;16.10;47.20
12632;DHT22;6381;45.748;12.106;2023-04-12T11:28:17;16.30;47.90
12632;DHT22;6381;45.748;12.106;2023-04-12T11:30:57;16.50;47.90
12632;DHT22;6381;45.748;12.106;2023-04-12T11:33:32;16.80;47.00
12632;DHT22;6381;45.748;12.106;2023-04-12T11:36:05;17.00;47.80
12632;DHT22;6381;45.748;12.106;2023-04-12T11:38:36;17.20;48.80
12632;DHT22;6381;45.748;12.106;2023-04-12T11:41:06;17.70;46.70
12632;DHT22;6381;45.748;12.106;2023-04-12T11:43:36;17.90;45.40
12632;DHT22;6381;45.748;12.106;2023-04-12T11:46:06;17.90;44.60
12632;DHT22;6381;45.748;12.106;2023-04-12T11:48:35;18.00;45.20
12632;DHT22;6381;45.748;12.106;2023-04-12T11:51:18;18.20;47.50
12632;DHT22;6381;45.748;12.106;2023-04-12T11:53:53;18.10;47.70
12632;DHT22;6381;45.748;12.106;2023-04-12T11:56:23;17.70;44.90
12632;DHT22;6381;45.748;12.106;2023-04-12T11:58:52;17.70;43.50
12632;DHT22;6381;45.748;12.106;2023-04-12T12:01:22;17.80;41.00
12632;DHT22;6381;45.748;12.106;2023-04-12T12:03:51;17.50;42.10
12632;DHT22;6381;45.748;12.106;2023-04-12T12:06:20;17.80;42.90
12632;DHT22;6381;45.748;12.106;2023-04-12T12:08:54;17.80;43.50
12632;DHT22;6381;45.748;12.106;2023-04-12T12:11:24;18.30;43.20
12632;DHT22;6381;45.748;12.106;2023-04-12T12:13:55;18.40;45.20
12632;DHT22;6381;45.748;12.106;2023-04-12T12:16:25;18.10;39.70
12632;DHT22;6381;45.748;12.106;2023-04-12T12:18:55;18.00;41.00
12632;DHT22;6381;45.748;12.106;2023-04-12T12:21:24;17.90;42.90
12632;DHT22;6381;45.748;12.106;2023-04-12T12:23:56;17.70;41.20
12632;DHT22;6381;45.748;12.106;2023-04-12T12:26:26;17.60;40.90
12632;DHT22;6381;45.748;12.106;2023-04-12T12:28:57;17.60;40.90
12632;DHT22;6381;45.748;12.106;2023-04-12T12:31:27;17.30;40.70
12632;DHT22;6381;45.748;12.106;2023-04-12T12:33:57;17.50;41.40
12632;DHT22;6381;45.748;12.106;2023-04-12T12:36:30;17.20;41.30
12632;DHT22;6381;45.748;12.106;2023-04-12T12:39:05;17.10;40.90
12632;DHT22;6381;45.748;12.106;2023-04-12T12:41:38;17.00;41.30
12632;DHT22;6381;45.748;12.106;2023-04-12T12:44:06;17.00;41.10
12632;DHT22;6381;45.748;12.106;2023-04-12T12:46:37;16.90;42.10
12632;DHT22;6381;45.748;12.106;2023-04-12T12:49:23;16.80;40.80
12632;DHT22;6381;45.748;12.106;2023-04-12T12:51:52;16.80;42.00
12632;DHT22;6381;45.748;12.106;2023-04-12T12:54:22;16.80;44.50
12632;DHT22;6381;45.748;12.106;2023-04-12T12:56:58;16.80;42.50
12632;DHT22;6381;45.748;12.106;2023-04-12T12:59:27;16.90;41.80
12632;DHT22;6381;45.748;12.106;2023-04-12T13:01:56;16.80;42.40
12632;DHT22;6381;45.748;12.106;2023-04-12T13:04:25;16.80;43.50
12632;DHT22;6381;45.748;12.106;2023-04-12T13:06:54;16.70;41.70
12632;DHT22;6381;45.748;12.106;2023-04-12T13:09:24;16.70;43.10
12632;DHT22;6381;45.748;12.106;2023-04-12T13:11:53;16.90;43.00
12632;DHT22;6381;45.748;12.106;2023-04-12T13:14:23;16.80;41.70
12632;DHT22;6381;45.748;12.106;2023-04-12T13:16:52;17.00;42.10
12632;DHT22;6381;45.748;12.106;2023-04-12T13:19:21;16.90;42.90
12632;DHT22;6381;45.748;12.106;2023-04-12T13:21:49;17.00;44.30
12632;DHT22;6381;45.748;12.106;2023-04-12T13:24:19;16.90;43.60
12632;DHT22;6381;45.748;12.106;2023-04-12T13:26:49;17.10;44.20
12632;DHT22;6381;45.748;12.106;2023-04-12T13:29:18;17.20;42.80
12632;DHT22;6381;45.748;12.106;2023-04-12T13:31:47;17.00;42.50
12632;DHT22;6381;45.748;12.106;2023-04-12T13:34:16;17.10;42.50
12632;DHT22;6381;45.748;12.106;2023-04-12T13:36:45;17.40;42.80
12632;DHT22;6381;45.748;12.106;2023-04-12T13:39:13;17.30;42.20
12632;DHT22;6381;45.748;12.106;2023-04-12T13:41:42;17.30;42.70
12632;DHT22;6381;45.748;12.106;2023-04-12T13:44:12;17.50;44.50
12632;DHT22;6381;45.748;12.106;2023-04-12T13:46:41;17.30;42.90
12632;DHT22;6381;45.748;12.106;2023-04-12T13:49:10;17.30;43.10
12632;DHT22;6381;45.748;12.106;2023-04-12T13:51:39;17.20;42.30
12632;DHT22;6381;45.748;12.106;2023-04-12T13:54:08;17.30;42.90
12632;DHT22;6381;45.748;12.106;2023-04-12T13:56:36;17.10;44.90
12632;DHT22;6381;45.748;12.106;2023-04-12T13:59:05;17.20;44.90
12632;DHT22;6381;45.748;12.106;2023-04-12T14:01:35;17.40;43.30
12632;DHT22;6381;45.748;12.106;2023-04-12T14:04:06;17.40;45.50
12632;DHT22;6381;45.748;12.106;2023-04-12T14:06:35;17.30;42.60
12632;DHT22;6381;45.748;12.106;2023-04-12T14:09:04;17.10;45.50
12632;DHT22;6381;45.748;12.106;2023-04-12T14:11:46;17.20;45.90
12632;DHT22;6381;45.748;12.106;2023-04-12T14:14:15;17.20;46.30
12632;DHT22;6381;45.748;12.106;2023-04-12T14:16:45;17.20;46.30
12632;DHT22;6381;45.748;12.106;2023-04-12T14:19:14;17.00;45.20
12632;DHT22;6381;45.748;12.106;2023-04-12T14:21:43;17.00;43.70
12632;DHT22;6381;45.748;12.106;2023-04-12T14:24:12;17.10;44.80
12632;DHT22;6381;45.748;12.106;2023-04-12T14:26:40;17.20;43.70
12632;DHT22;6381;45.748;12.106;2023-04-12T14:29:10;17.10;45.30
12632;DHT22;6381;45.748;12.106;2023-04-12T14:31:39;17.00;45.40
12632;DHT22;6381;45.748;12.106;2023-04-12T14:34:10;16.90;46.20
12632;DHT22;6381;45.748;12.106;2023-04-12T14:36:39;17.00;46.00
12632;DHT22;6381;45.748;12.106;2023-04-12T14:39:08;17.00;45.40
12632;DHT22;6381;45.748;12.106;2023-04-12T14:41:40;16.90;44.40
12632;DHT22;6381;45.748;12.106;2023-04-12T14:44:09;16.90;45.80
12632;DHT22;6381;45.748;12.106;2023-04-12T14:46:38;17.00;45.00
12632;DHT22;6381;45.748;12.106;2023-04-12T14:49:06;16.90;46.90
12632;DHT22;6381;45.748;12.106;2023-04-12T14:51:37;17.00;46.70
12632;DHT22;6381;45.748;12.106;2023-04-12T14:54:05;16.90;46.40
12632;DHT22;6381;45.748;12.106;2023-04-12T14:56:34;16.90;45.40
12632;DHT22;6381;45.748;12.106;2023-04-12T14:59:11;17.00;46.10
12632;DHT22;6381;45.748;12.106;2023-04-12T15:01:40;16.90;45.70
12632;DHT22;6381;45.748;12.106;2023-04-12T15:04:09;17.00;45.70
12632;DHT22;6381;45.748;12.106;2023-04-12T15:06:40;17.10;45.60
12632;DHT22;6381;45.748;12.106;2023-04-12T15:09:12;17.10;45.90
12632;DHT22;6381;45.748;12.106;2023-04-12T15:11:41;16.90;45.90
12632;DHT22;6381;45.748;12.106;2023-04-12T15:14:13;16.90;45.70
12632;DHT22;6381;45.748;12.106;2023-04-12T15:16:46;16.90;45.70
12632;DHT22;6381;45.748;12.106;2023-04-12T15:19:16;16.90;45.50
12632;DHT22;6381;45.748;12.106;2023-04-12T15:21:51;16.90;45.20
12632;DHT22;6381;45.748;12.106;2023-04-12T15:24:22;16.90;45.40
12632;DHT22;6381;45.748;12.106;2023-04-12T15:26:51;16.90;45.90
12632;DHT22;6381;45.748;12.106;2023-04-12T15:29:20;16.80;44.90
12632;DHT22;6381;45.748;12.106;2023-04-12T15:31:50;16.80;45.40
12632;DHT22;6381;45.748;12.106;2023-04-12T15:34:19;16.80;45.40
12632;DHT22;6381;45.748;12.106;2023-04-12T15:36:51;16.60;44.20
12632;DHT22;6381;45.748;12.106;2023-04-12T15:39:20;16.60;45.40
12632;DHT22;6381;45.748;12.106;2023-04-12T15:41:50;16.50;45.10
12632;DHT22;6381;45.748;12.106;2023-04-12T15:44:21;16.60;45.50
12632;DHT22;6381;45.748;12.106;2023-04-12T15:46:51;16.50;45.00
12632;DHT22;6381;45.748;12.106;2023-04-12T15:49:37;16.40;44.30
12632;DHT22;6381;45.748;12.106;2023-04-12T15:52:08;16.50;44.70
12632;DHT22;6381;45.748;12.106;2023-04-12T15:54:36;16.70;45.60
12632;DHT22;6381;45.748;12.106;2023-04-12T15:57:09;16.70;44.80